createdAt,value
2023-06-09T00:02:23.426Z,93851.00
2023-06-09T00:04:51.394Z,93850.00
2023-06-09T00:07:18.405Z,93849.00
2023-06-09T00:09:45.774Z,93856.00
2023-06-09T00:12:13.794Z,93844.00
2023-06-09T00:14:41.312Z,93832.00
2023-06-09T00:17:10.827Z,93838.00
2023-06-09T00:19:43.293Z,93833.00
2023-06-09T00:22:16.465Z,93827.00
2023-06-09T00:24:47.572Z,93831.00
2023-06-09T00:27:14.554Z,93829.00
2023-06-09T00:29:41.460Z,93827.00
2023-06-09T00:32:09.881Z,93827.00
2023-06-09T00:34:36.969Z,93832.00
2023-06-09T00:37:04.146Z,93834.00
2023-06-09T00:39:31.501Z,93852.00
2023-06-09T00:42:00.890Z,93843.00
2023-06-09T00:44:27.965Z,93833.00
2023-06-09T00:46:57.658Z,93833.00
2023-06-09T00:49:24.597Z,93828.00
2023-06-09T00:51:54.173Z,93824.00
2023-06-09T00:54:21.996Z,93823.00
2023-06-09T00:56:51.458Z,93817.00
2023-06-09T00:59:18.906Z,93822.00
2023-06-09T01:01:45.923Z,93822.00
2023-06-09T01:04:15.465Z,93822.00
2023-06-09T01:06:50.115Z,93816.00
2023-06-09T01:09:36.892Z,93823.00
2023-06-09T01:12:24.798Z,93816.00
2023-06-09T01:15:04.936Z,93824.00
2023-06-09T01:17:34.087Z,93829.00
2023-06-09T01:20:05.640Z,93824.00
2023-06-09T01:22:45.578Z,93823.00
2023-06-09T01:25:44.901Z,93817.00
2023-06-09T01:28:17.556Z,93817.00
2023-06-09T01:30:50.098Z,93820.00
2023-06-09T01:33:21.589Z,93824.00
2023-06-09T01:35:49.087Z,93827.00
2023-06-09T01:38:17.314Z,93819.00
2023-06-09T01:40:45.128Z,93823.00
2023-06-09T01:43:14.740Z,93828.00
2023-06-09T01:45:41.782Z,93830.00
2023-06-09T01:48:32.840Z,93832.00
2023-06-09T01:51:15.280Z,93831.00
2023-06-09T01:53:51.202Z,93825.00
2023-06-09T01:56:34.510Z,93816.00
2023-06-09T01:59:08.294Z,93823.00
2023-06-09T02:01:40.406Z,93819.00
2023-06-09T02:04:09.799Z,93826.00
2023-06-09T02:06:39.479Z,93820.00
2023-06-09T02:09:11.636Z,93822.00
2023-06-09T02:11:41.173Z,93825.00
2023-06-09T02:14:10.645Z,93818.00
2023-06-09T02:16:38.246Z,93824.00
2023-06-09T02:19:07.488Z,93831.00
2023-06-09T02:21:34.418Z,93821.00
2023-06-09T02:24:04.087Z,93818.00
2023-06-09T02:26:31.910Z,93810.00
2023-06-09T02:28:58.803Z,93812.00
2023-06-09T02:31:25.720Z,93807.00
2023-06-09T02:33:54.867Z,93810.00
2023-06-09T02:36:24.792Z,93820.00
2023-06-09T02:38:51.736Z,93811.00
2023-06-09T02:41:18.606Z,93805.00
2023-06-09T02:43:45.572Z,93802.00
2023-06-09T02:46:18.589Z,93806.00
2023-06-09T02:48:46.114Z,93811.00
2023-06-09T02:51:17.404Z,93805.00
2023-06-09T02:53:46.910Z,93804.00
2023-06-09T02:56:14.606Z,93807.00
2023-06-09T02:58:41.919Z,93803.00
2023-06-09T03:01:12.728Z,93806.00
2023-06-09T03:03:44.799Z,93801.00
2023-06-09T03:06:14.479Z,93801.00
2023-06-09T03:08:42.828Z,93801.00
2023-06-09T03:11:12.346Z,93802.00
2023-06-09T03:13:41.573Z,93806.00
2023-06-09T03:16:08.461Z,93803.00
2023-06-09T03:18:37.450Z,93808.00
2023-06-09T03:21:05.779Z,93805.00
2023-06-09T03:23:35.429Z,93810.00
2023-06-09T03:26:02.634Z,93801.00
2023-06-09T03:28:32.035Z,93811.00
2023-06-09T03:30:59.592Z,93795.00
2023-06-09T03:33:26.607Z,93806.00
2023-06-09T03:35:54.049Z,93807.00
2023-06-09T03:38:23.970Z,93807.00
2023-06-09T03:40:51.027Z,93800.00
2023-06-09T03:43:20.218Z,93801.00
2023-06-09T03:45:49.633Z,93805.00
2023-06-09T03:48:17.828Z,93804.00
2023-06-09T03:50:44.759Z,93801.00
2023-06-09T03:53:11.681Z,93815.00
2023-06-09T03:55:39.513Z,93819.00
2023-06-09T03:58:07.269Z,93818.00
2023-06-09T04:00:34.283Z,93812.00
2023-06-09T04:03:01.289Z,93823.00
2023-06-09T04:05:28.332Z,93818.00
2023-06-09T04:07:59.891Z,93818.00
2023-06-09T04:10:29.802Z,93820.00
2023-06-09T04:12:59.201Z,93825.00
2023-06-09T04:15:28.226Z,93813.00
2023-06-09T04:17:55.139Z,93830.00
2023-06-09T04:20:23.974Z,93834.00
2023-06-09T04:22:55.966Z,93839.00
2023-06-09T04:25:29.163Z,93824.00
2023-06-09T04:27:58.582Z,93832.00
2023-06-09T04:30:30.665Z,93830.00
2023-06-09T04:33:03.041Z,93829.00
2023-06-09T04:35:31.433Z,93830.00
2023-06-09T04:38:03.512Z,93834.00
2023-06-09T04:40:31.261Z,93834.00
2023-06-09T04:43:00.386Z,93828.00
2023-06-09T04:45:34.685Z,93830.00
2023-06-09T04:48:06.258Z,93835.00
2023-06-09T04:50:38.702Z,93837.00
2023-06-09T04:53:12.642Z,93843.00
2023-06-09T04:55:42.052Z,93841.00
2023-06-09T04:58:09.051Z,93843.00
2023-06-09T05:00:36.553Z,93842.00
2023-06-09T05:03:04.142Z,93836.00
2023-06-09T05:05:36.116Z,93842.00
2023-06-09T05:08:05.538Z,93837.00
2023-06-09T05:10:32.466Z,93841.00
2023-06-09T05:12:59.425Z,93843.00
2023-06-09T05:15:29.036Z,93845.00
2023-06-09T05:17:59.242Z,93849.00
2023-06-09T05:20:26.275Z,93855.00
2023-06-09T05:22:53.162Z,93856.00
2023-06-09T05:25:20.336Z,93856.00
2023-06-09T05:27:47.200Z,93853.00
2023-06-09T05:30:14.370Z,93856.00
2023-06-09T05:32:41.396Z,93858.00
2023-06-09T05:35:08.983Z,93851.00
2023-06-09T05:37:43.479Z,93855.00
2023-06-09T05:40:12.419Z,93854.00
2023-06-09T05:42:39.945Z,93855.00
2023-06-09T05:45:07.582Z,93858.00
2023-06-09T05:47:35.029Z,93861.00
2023-06-09T05:50:01.931Z,93859.00
2023-06-09T05:52:31.184Z,93858.00
2023-06-09T05:54:58.362Z,93863.00
2023-06-09T05:57:27.117Z,93858.00
2023-06-09T05:59:54.105Z,93865.00
2023-06-09T06:02:21.556Z,93857.00
2023-06-09T06:04:51.178Z,93854.00
2023-06-09T06:07:22.030Z,93854.00
2023-06-09T06:09:49.465Z,93854.00
2023-06-09T06:12:16.567Z,93850.00
2023-06-09T06:14:43.482Z,93844.00
2023-06-09T06:17:10.486Z,93839.00
2023-06-09T06:19:42.382Z,93851.00
2023-06-09T06:22:11.822Z,93843.00
2023-06-09T06:24:38.724Z,93855.00
2023-06-09T06:27:06.652Z,93844.00
2023-06-09T06:29:34.790Z,93848.00
2023-06-09T06:32:04.661Z,93849.00
2023-06-09T06:34:31.514Z,93849.00
2023-06-09T06:36:58.678Z,93848.00
2023-06-09T06:39:28.958Z,93848.00
2023-06-09T06:41:56.063Z,93856.00
2023-06-09T06:44:23.003Z,93860.00
2023-06-09T06:46:49.851Z,93856.00
2023-06-09T06:49:17.421Z,93851.00
2023-06-09T06:51:44.348Z,93850.00
2023-06-09T06:54:11.256Z,93847.00
2023-06-09T06:56:38.682Z,93851.00
2023-06-09T06:59:05.531Z,93848.00
2023-06-09T07:01:34.847Z,93845.00
2023-06-09T07:04:01.850Z,93845.00
2023-06-09T07:06:33.134Z,93850.00
2023-06-09T07:09:02.974Z,93848.00
2023-06-09T07:11:33.529Z,93851.00
2023-06-09T07:14:00.532Z,93846.00
2023-06-09T07:16:29.582Z,93850.00
2023-06-09T07:18:56.512Z,93853.00
2023-06-09T07:21:23.381Z,93858.00
2023-06-09T07:23:50.376Z,93839.00
2023-06-09T07:26:17.593Z,93841.00
2023-06-09T07:28:44.547Z,93843.00
2023-06-09T07:31:14.392Z,93854.00
2023-06-09T07:33:41.854Z,93851.00
2023-06-09T07:36:11.384Z,93850.00
2023-06-09T07:38:44.504Z,93849.00
2023-06-09T07:41:13.682Z,93850.00
2023-06-09T07:43:40.663Z,93855.00
2023-06-09T07:46:08.501Z,93853.00
2023-06-09T07:48:38.606Z,93853.00
2023-06-09T07:51:08.394Z,93858.00
2023-06-09T07:53:37.024Z,93846.00
2023-06-09T07:56:09.365Z,93840.00
2023-06-09T07:58:42.210Z,93845.00
2023-06-09T08:01:09.171Z,93853.00
2023-06-09T08:03:36.992Z,93849.00
2023-06-09T08:06:04.195Z,93842.00
2023-06-09T08:08:32.593Z,93845.00
2023-06-09T08:11:01.205Z,93841.00
2023-06-09T08:13:31.797Z,93841.00
2023-06-09T08:16:01.388Z,93849.00
2023-06-09T08:18:30.694Z,93840.00
2023-06-09T08:20:57.597Z,93850.00
2023-06-09T08:23:27.192Z,93851.00
2023-06-09T08:25:54.161Z,93836.00
2023-06-09T08:28:23.586Z,93839.00
2023-06-09T08:30:56.235Z,93834.00
2023-06-09T08:33:23.948Z,93835.00
2023-06-09T08:35:50.891Z,93832.00
2023-06-09T08:38:17.811Z,93839.00
2023-06-09T08:40:44.913Z,93835.00
2023-06-09T08:43:14.071Z,93831.00
2023-06-09T08:45:45.739Z,93834.00
2023-06-09T08:48:17.304Z,93841.00
2023-06-09T08:50:44.753Z,93832.00
2023-06-09T08:53:12.169Z,93847.00
2023-06-09T08:55:42.122Z,93833.00
2023-06-09T08:58:09.293Z,93841.00
2023-06-09T09:00:39.066Z,93842.00
2023-06-09T09:03:07.196Z,93840.00
2023-06-09T09:05:34.763Z,93830.00
2023-06-09T09:08:04.035Z,93830.00
2023-06-09T09:10:33.312Z,93843.00
2023-06-09T09:13:00.445Z,93835.00
2023-06-09T09:15:29.678Z,93835.00
2023-06-09T09:18:02.371Z,93837.00
2023-06-09T09:20:34.182Z,93840.00
2023-06-09T09:23:01.410Z,93817.00
2023-06-09T09:25:31.502Z,93826.00
2023-06-09T09:28:12.612Z,93831.00
2023-06-09T09:30:41.065Z,93835.00
2023-06-09T09:33:11.946Z,93819.00
2023-06-09T09:36:06.033Z,93818.00
2023-06-09T09:38:32.996Z,93822.00
2023-06-09T09:41:01.424Z,93813.00
2023-06-09T09:43:31.777Z,93823.00
2023-06-09T09:46:07.549Z,93810.00
2023-06-09T09:48:38.551Z,93818.00
2023-06-09T09:51:09.798Z,93825.00
2023-06-09T09:53:39.254Z,93815.00
2023-06-09T09:56:06.959Z,93814.00
2023-06-09T09:58:41.137Z,93816.00
2023-06-09T10:01:09.410Z,93814.00
2023-06-09T10:03:40.307Z,93803.00
2023-06-09T10:06:12.424Z,93802.00
2023-06-09T10:08:43.904Z,93811.00
2023-06-09T10:11:13.159Z,93793.00
2023-06-09T10:13:40.511Z,93809.00
2023-06-09T10:16:10.435Z,93802.00
2023-06-09T10:18:41.718Z,93805.00
2023-06-09T10:21:10.674Z,93798.00
2023-06-09T10:23:41.366Z,93805.00
2023-06-09T10:26:10.740Z,93807.00
2023-06-09T10:28:38.383Z,93799.00
2023-06-09T10:31:09.041Z,93809.00
2023-06-09T10:33:39.681Z,93798.00
2023-06-09T10:36:07.211Z,93796.00
2023-06-09T10:38:51.097Z,93801.00
2023-06-09T10:41:39.500Z,93797.00
2023-06-09T10:44:53.996Z,93800.00
2023-06-09T10:47:49.407Z,93790.00
2023-06-09T10:50:34.241Z,93792.00
2023-06-09T10:53:15.704Z,93787.00
2023-06-09T10:55:43.842Z,93786.00
2023-06-09T10:58:41.385Z,93781.00
2023-06-09T11:01:08.756Z,93782.00
2023-06-09T11:03:36.037Z,93771.00
2023-06-09T11:06:05.367Z,93770.00
2023-06-09T11:09:15.381Z,93775.00
2023-06-09T11:11:55.275Z,93763.00
2023-06-09T11:14:58.044Z,93762.00
2023-06-09T11:17:27.826Z,93764.00
2023-06-09T11:20:13.499Z,93762.00
2023-06-09T11:22:43.768Z,93760.00
2023-06-09T11:25:23.316Z,93761.00
2023-06-09T11:27:58.139Z,93757.00
2023-06-09T11:30:31.741Z,93760.00
2023-06-09T11:33:09.277Z,93750.00
2023-06-09T11:35:44.561Z,93743.00
2023-06-09T11:38:23.805Z,93748.00
2023-06-09T11:40:52.808Z,93760.00
2023-06-09T11:43:21.401Z,93757.00
2023-06-09T11:45:51.352Z,93748.00
2023-06-09T11:48:20.872Z,93754.00
2023-06-09T11:50:50.652Z,93751.00
2023-06-09T11:53:25.982Z,93751.00
2023-06-09T11:56:02.503Z,93737.00
2023-06-09T11:58:29.601Z,93748.00
2023-06-09T12:00:57.383Z,93715.00
2023-06-09T12:03:24.919Z,93741.00
2023-06-09T12:05:53.221Z,93741.00
2023-06-09T12:08:20.421Z,93736.00
2023-06-09T12:10:47.588Z,93739.00
2023-06-09T12:13:15.098Z,93737.00
2023-06-09T12:15:51.596Z,93725.00
2023-06-09T12:18:18.616Z,93731.00
2023-06-09T12:20:54.633Z,93730.00
2023-06-09T12:23:29.031Z,93728.00
2023-06-09T12:25:56.121Z,93722.00
2023-06-09T12:28:29.012Z,93736.00
2023-06-09T12:31:19.964Z,93726.00
2023-06-09T12:33:57.614Z,93719.00
2023-06-09T12:36:29.399Z,93729.00
2023-06-09T12:38:56.403Z,93728.00
2023-06-09T12:41:23.392Z,93718.00
2023-06-09T12:43:52.619Z,93720.00
2023-06-09T12:46:36.585Z,93725.00
2023-06-09T12:49:10.641Z,93711.00
2023-06-09T12:51:46.838Z,93710.00
2023-06-09T12:54:14.772Z,93714.00
2023-06-09T12:56:42.086Z,93716.00
2023-06-09T12:59:10.331Z,93713.00
2023-06-09T13:01:37.599Z,93707.00
2023-06-09T13:04:05.532Z,93711.00
2023-06-09T13:06:34.666Z,93708.00
2023-06-09T13:09:02.148Z,93701.00
2023-06-09T13:11:31.576Z,93709.00
2023-06-09T13:13:58.600Z,93700.00
2023-06-09T13:16:25.660Z,93692.00
2023-06-09T13:18:54.776Z,93703.00
2023-06-09T13:21:42.440Z,93709.00
2023-06-09T13:24:09.144Z,93704.00
2023-06-09T13:26:36.134Z,93705.00
2023-06-09T13:29:10.079Z,93710.00
2023-06-09T13:31:37.208Z,93701.00
2023-06-09T13:34:04.151Z,93697.00
2023-06-09T13:36:31.114Z,93695.00
2023-06-09T13:39:00.619Z,93700.00
2023-06-09T13:41:28.370Z,93699.00
2023-06-09T13:43:55.408Z,93688.00
2023-06-09T13:46:22.963Z,93692.00
2023-06-09T13:48:52.622Z,93686.00
2023-06-09T13:51:19.644Z,93683.00
2023-06-09T13:53:48.700Z,93685.00
2023-06-09T13:56:21.219Z,93676.00
2023-06-09T13:58:48.237Z,93675.00
2023-06-09T14:01:15.488Z,93671.00
2023-06-09T14:03:42.818Z,93664.00
2023-06-09T14:06:09.835Z,93654.00
2023-06-09T14:08:36.778Z,93658.00
2023-06-09T14:11:04.105Z,93652.00
2023-06-09T14:13:31.015Z,93656.00
2023-06-09T14:15:57.927Z,93653.00
2023-06-09T14:18:24.885Z,93665.00
2023-06-09T14:20:54.313Z,93659.00
2023-06-09T14:23:22.129Z,93654.00
2023-06-09T14:25:49.037Z,93664.00
2023-06-09T14:28:16.639Z,93660.00
2023-06-09T14:30:43.504Z,93640.00
2023-06-09T14:33:10.609Z,93648.00
2023-06-09T14:35:37.769Z,93647.00
2023-06-09T14:38:05.544Z,93637.00
2023-06-09T14:40:36.970Z,93642.00
2023-06-09T14:43:09.049Z,93633.00
2023-06-09T14:45:36.362Z,93637.00
2023-06-09T14:48:09.577Z,93624.00
2023-06-09T14:50:41.449Z,93637.00
2023-06-09T14:53:09.583Z,93632.00
2023-06-09T14:55:47.569Z,93626.00
2023-06-09T14:58:17.514Z,93625.00
2023-06-09T15:00:47.260Z,93630.00
2023-06-09T15:03:19.621Z,93639.00
2023-06-09T15:05:47.434Z,93626.00
2023-06-09T15:08:16.608Z,93625.00
2023-06-09T15:10:45.867Z,93622.00
2023-06-09T15:13:15.138Z,93630.00
2023-06-09T15:15:42.624Z,93630.00
2023-06-09T15:18:12.739Z,93623.00
2023-06-09T15:20:44.173Z,93624.00
2023-06-09T15:23:12.574Z,93629.00
2023-06-09T15:25:41.666Z,93634.00
2023-06-09T15:28:14.590Z,93634.00
2023-06-09T15:30:44.762Z,93625.00
2023-06-09T15:33:20.472Z,93631.00
2023-06-09T15:35:54.294Z,93624.00
2023-06-09T15:38:26.088Z,93628.00
2023-06-09T15:40:58.365Z,93631.00
2023-06-09T15:43:37.823Z,93635.00
2023-06-09T15:46:08.222Z,93629.00
2023-06-09T15:48:38.819Z,93636.00
2023-06-09T15:51:06.351Z,93628.00
2023-06-09T15:53:33.250Z,93633.00
2023-06-09T15:56:00.211Z,93625.00
2023-06-09T15:58:27.185Z,93626.00
2023-06-09T16:00:54.128Z,93628.00
2023-06-09T16:03:21.352Z,93625.00
2023-06-09T16:05:48.470Z,93630.00
2023-06-09T16:08:18.011Z,93629.00
2023-06-09T16:10:48.593Z,93620.00
2023-06-09T16:13:18.637Z,93621.00
2023-06-09T16:15:45.588Z,93617.00
2023-06-09T16:18:14.385Z,93612.00
2023-06-09T16:20:44.106Z,93612.00
2023-06-09T16:23:11.973Z,93610.00
2023-06-09T16:25:39.503Z,93612.00
2023-06-09T16:28:07.139Z,93613.00
2023-06-09T16:30:39.156Z,93616.00
2023-06-09T16:33:07.759Z,93623.00
2023-06-09T16:35:40.148Z,93619.00
2023-06-09T16:38:08.060Z,93621.00
2023-06-09T16:40:38.332Z,93618.00
2023-06-09T16:43:05.287Z,93624.00
2023-06-09T16:45:35.067Z,93629.00
2023-06-09T16:48:02.312Z,93625.00
2023-06-09T16:50:29.369Z,93628.00
2023-06-09T16:52:58.492Z,93624.00
2023-06-09T16:55:25.975Z,93635.00
2023-06-09T16:57:53.025Z,93637.00
2023-06-09T17:00:20.216Z,93627.00
2023-06-09T17:02:50.957Z,93639.00
2023-06-09T17:05:21.192Z,93637.00
2023-06-09T17:07:48.046Z,93638.00
2023-06-09T17:10:15.310Z,93642.00
2023-06-09T17:12:44.553Z,93638.00
2023-06-09T17:15:11.890Z,93640.00
2023-06-09T17:17:41.077Z,93641.00
2023-06-09T17:20:12.414Z,93644.00
2023-06-09T17:22:39.408Z,93646.00
2023-06-09T17:25:07.027Z,93651.00
2023-06-09T17:27:34.207Z,93650.00
2023-06-09T17:30:13.141Z,93651.00
2023-06-09T17:32:41.653Z,93659.00
2023-06-09T17:35:09.658Z,93660.00
2023-06-09T17:37:39.960Z,93668.00
2023-06-09T17:40:09.611Z,93655.00
2023-06-09T17:42:39.351Z,93666.00
2023-06-09T17:45:13.372Z,93673.00
2023-06-09T17:47:43.138Z,93670.00
2023-06-09T17:50:10.899Z,93677.00
2023-06-09T17:52:37.898Z,93683.00
2023-06-09T17:55:08.061Z,93679.00
2023-06-09T17:57:35.382Z,93686.00
2023-06-09T18:00:05.680Z,93677.00
2023-06-09T18:02:32.714Z,93680.00
2023-06-09T18:05:06.195Z,93685.00
2023-06-09T18:07:35.777Z,93681.00
2023-06-09T18:10:06.197Z,93686.00
2023-06-09T18:12:36.172Z,93694.00
2023-06-09T18:15:03.584Z,93691.00
2023-06-09T18:17:32.472Z,93698.00
2023-06-09T18:20:02.136Z,93699.00
2023-06-09T18:22:33.471Z,93700.00
2023-06-09T18:25:00.770Z,93705.00
2023-06-09T18:27:30.438Z,93702.00
2023-06-09T18:29:59.954Z,93703.00
2023-06-09T18:32:27.384Z,93702.00
2023-06-09T18:34:54.337Z,93707.00
2023-06-09T18:37:26.776Z,93705.00
2023-06-09T18:39:53.717Z,93706.00
2023-06-09T18:42:20.688Z,93712.00
2023-06-09T18:44:47.602Z,93714.00
2023-06-09T18:47:15.685Z,93726.00
2023-06-09T18:49:43.426Z,93720.00
2023-06-09T18:52:11.318Z,93719.00
2023-06-09T18:54:40.444Z,93712.00
2023-06-09T18:57:08.675Z,93720.00
2023-06-09T18:59:36.020Z,93718.00
2023-06-09T19:02:05.365Z,93724.00
2023-06-09T19:04:34.720Z,93727.00
2023-06-09T19:07:04.637Z,93733.00
2023-06-09T19:09:31.574Z,93726.00
2023-06-09T19:11:58.506Z,93735.00
2023-06-09T19:14:27.652Z,93738.00
2023-06-09T19:16:55.019Z,93735.00
2023-06-09T19:19:21.982Z,93733.00
2023-06-09T19:21:49.989Z,93736.00
2023-06-09T19:24:19.309Z,93738.00
2023-06-09T19:26:48.905Z,93729.00
2023-06-09T19:29:18.742Z,93740.00
2023-06-09T19:31:45.842Z,93733.00
2023-06-09T19:34:15.565Z,93737.00
2023-06-09T19:36:48.059Z,93741.00
2023-06-09T19:39:15.265Z,93741.00
2023-06-09T19:41:42.208Z,93745.00
2023-06-09T19:44:09.252Z,93757.00
2023-06-09T19:46:36.238Z,93760.00
2023-06-09T19:49:03.293Z,93756.00
2023-06-09T19:51:30.195Z,93750.00
2023-06-09T19:53:58.121Z,93760.00
2023-06-09T19:56:29.702Z,93768.00
2023-06-09T19:58:56.712Z,93771.00
2023-06-09T20:01:23.824Z,93771.00
2023-06-09T20:03:50.824Z,93773.00
2023-06-09T20:06:20.354Z,93769.00
2023-06-09T20:08:47.336Z,93782.00
2023-06-09T20:11:15.639Z,93792.00
2023-06-09T20:13:46.370Z,93787.00
2023-06-09T20:16:13.596Z,93778.00
2023-06-09T20:18:42.799Z,93784.00
2023-06-09T20:21:09.799Z,93779.00
2023-06-09T20:23:43.361Z,93792.00
2023-06-09T20:26:16.245Z,93778.00
2023-06-09T20:28:44.382Z,93787.00
2023-06-09T20:31:11.756Z,93791.00
2023-06-09T20:33:43.667Z,93792.00
2023-06-09T20:36:17.390Z,93790.00
2023-06-09T20:38:46.416Z,93794.00
2023-06-09T20:41:13.432Z,93789.00
2023-06-09T20:43:40.790Z,93790.00
2023-06-09T20:46:10.667Z,93788.00
2023-06-09T20:48:37.852Z,93790.00
2023-06-09T20:51:07.820Z,93803.00
2023-06-09T20:53:35.041Z,93799.00
2023-06-09T20:56:02.502Z,93803.00
2023-06-09T20:58:31.726Z,93801.00
2023-06-09T21:01:00.352Z,93800.00
2023-06-09T21:03:28.073Z,93795.00
2023-06-09T21:05:55.242Z,93802.00
2023-06-09T21:08:22.301Z,93798.00
2023-06-09T21:10:51.621Z,93792.00
2023-06-09T21:13:18.583Z,93794.00
2023-06-09T21:15:46.593Z,93797.00
2023-06-09T21:18:13.589Z,93792.00
2023-06-09T21:20:41.528Z,93792.00
2023-06-09T21:23:08.746Z,93793.00
2023-06-09T21:25:35.690Z,93793.00
2023-06-09T21:28:06.494Z,93796.00
2023-06-09T21:30:34.022Z,93798.00
2023-06-09T21:33:02.064Z,93797.00
2023-06-09T21:35:29.256Z,93796.00
2023-06-09T21:37:59.953Z,93807.00
2023-06-09T21:40:26.994Z,93809.00
2023-06-09T21:42:53.886Z,93810.00
2023-06-09T21:45:21.209Z,93807.00
2023-06-09T21:47:48.229Z,93808.00
2023-06-09T21:50:15.268Z,93806.00
2023-06-09T21:52:44.755Z,93811.00
2023-06-09T21:55:11.884Z,93817.00
2023-06-09T21:57:39.092Z,93821.00
2023-06-09T22:00:13.634Z,93828.00
2023-06-09T22:02:41.905Z,93826.00
2023-06-09T22:05:09.826Z,93823.00
2023-06-09T22:07:37.161Z,93821.00
2023-06-09T22:10:04.883Z,93823.00
2023-06-09T22:12:39.547Z,93824.00
2023-06-09T22:15:15.186Z,93823.00
2023-06-09T22:17:43.271Z,93826.00
2023-06-09T22:20:14.712Z,93827.00
2023-06-09T22:22:42.434Z,93832.00
2023-06-09T22:25:11.855Z,93830.00
2023-06-09T22:27:39.249Z,93828.00
2023-06-09T22:30:07.999Z,93832.00
2023-06-09T22:32:37.626Z,93821.00
2023-06-09T22:35:05.997Z,93818.00
2023-06-09T22:37:33.202Z,93824.00
2023-06-09T22:40:02.255Z,93826.00
2023-06-09T22:42:29.187Z,93819.00
2023-06-09T22:44:58.608Z,93815.00
2023-06-09T22:47:30.626Z,93821.00
2023-06-09T22:50:11.337Z,93815.00
2023-06-09T22:52:44.536Z,93815.00
2023-06-09T22:55:15.695Z,93809.00
2023-06-09T22:57:50.157Z,93817.00
2023-06-09T23:00:19.879Z,93817.00
2023-06-09T23:02:46.893Z,93809.00
2023-06-09T23:05:15.589Z,93810.00
2023-06-09T23:07:42.864Z,93814.00
2023-06-09T23:10:15.830Z,93813.00
2023-06-09T23:12:45.251Z,93810.00
2023-06-09T23:15:12.644Z,93818.00
2023-06-09T23:17:41.124Z,93819.00
2023-06-09T23:20:12.956Z,93827.00
2023-06-09T23:22:41.141Z,93821.00
2023-06-09T23:25:09.086Z,93822.00
2023-06-09T23:27:40.780Z,93818.00
2023-06-09T23:30:12.641Z,93826.00
2023-06-09T23:32:43.455Z,93831.00
2023-06-09T23:35:12.161Z,93826.00
2023-06-09T23:37:41.858Z,93814.00
2023-06-09T23:40:11.004Z,93813.00
2023-06-09T23:42:41.522Z,93817.00
2023-06-09T23:45:11.807Z,93807.00
2023-06-09T23:47:39.360Z,93773.00
2023-06-09T23:50:12.076Z,93800.00
2023-06-09T23:52:39.287Z,93792.00
2023-06-09T23:55:10.096Z,93795.00
2023-06-09T23:57:42.171Z,93795.00
